Time;durP1;ratioP1;P1;durP2;ratioP2;P2;SDS_P1;SDS_P2;PMS_P1;PMS_P2;Temp;Humidity;BMP_temperature;BMP_pressure;BME280_temperature;BME280_humidity;BME280_pressure;Samples;Min_cycle;Max_cycle;Signal;HPM_P1;HPM_P2
2021/12/05 00:22:16;;;;;;;17.52;9.68;;;3.90;99.90;;;;;;4971175;28;20046;-74
2021/12/05 00:24:47;;;;;;;24.00;9.50;;;3.90;99.90;;;;;;5001779;28;20401;-75
2021/12/05 00:27:20;;;;;;;20.88;8.63;;;3.90;99.90;;;;;;4981273;28;20054;-75
2021/12/05 00:45:50;;;;;;;20.92;8.65;;;4.30;99.90;;;;;;4988283;28;20034;-74
2021/12/05 00:48:50;;;;;;;20.48;8.18;;;4.30;99.90;;;;;;4988389;28;20046;-75
2021/12/05 00:51:47;;;;;;;13.23;7.63;;;4.30;99.90;;;;;;4970307;28;20039;-76
2021/12/05 01:04:37;;;;;;;15.00;7.30;;;4.30;99.90;;;;;;4977083;28;20461;-75
2021/12/05 01:09:45;;;;;;;19.40;7.68;;;4.30;99.90;;;;;;4983762;28;20053;-75
2021/12/05 01:12:21;;;;;;;16.20;7.32;;;4.20;99.90;;;;;;4988067;28;20076;-75
2021/12/05 01:14:58;;;;;;;19.45;7.68;;;4.20;99.90;;;;;;4985440;28;20504;-75
2021/12/05 01:17:31;;;;;;;15.98;7.28;;;4.10;99.90;;;;;;4978423;28;20528;-75
2021/12/05 01:19:58;;;;;;;13.90;6.63;;;4.10;99.90;;;;;;4984189;28;20397;-75
2021/12/05 01:22:33;;;;;;;15.65;7.32;;;4.10;99.90;;;;;;4977810;28;20065;-75
2021/12/05 01:27:47;;;;;;;18.42;7.90;;;4.00;99.90;;;;;;4981973;28;20043;-75
2021/12/05 01:30:29;;;;;;;16.42;7.28;;;4.10;99.90;;;;;;4984765;28;20523;-74
2021/12/05 01:33:06;;;;;;;14.47;7.83;;;4.00;99.90;;;;;;4971741;28;20034;-74
2021/12/05 01:36:04;;;;;;;24.95;8.45;;;4.10;99.90;;;;;;4985006;28;21042;-74
2021/12/05 01:39:00;;;;;;;16.75;8.68;;;4.10;99.90;;;;;;4985270;28;20049;-74
2021/12/05 01:42:05;;;;;;;21.70;8.80;;;4.10;99.90;;;;;;4979300;28;20529;-76
2021/12/05 01:47:28;;;;;;;20.00;8.73;;;4.20;99.90;;;;;;4976811;28;20049;-75
2021/12/05 01:58:54;;;;;;;23.77;9.77;;;4.20;99.90;;;;;;4990112;28;20174;-74
2021/12/05 02:35:19;;;;;;;33.13;18.00;;;4.30;99.90;;;;;;4985073;28;20550;-75
2021/12/05 02:38:48;;;;;;;39.83;18.13;;;4.40;99.90;;;;;;4981544;28;20485;-76
2021/12/05 02:43:44;;;;;;;40.67;18.02;;;4.40;99.90;;;;;;4986969;28;20134;-75
2021/12/05 02:46:06;;;;;;;37.80;18.45;;;4.30;99.90;;;;;;4980808;28;20552;-74
2021/12/05 02:48:36;;;;;;;37.30;18.83;;;4.40;99.90;;;;;;4981188;28;20050;-76
2021/12/05 02:51:06;;;;;;;40.15;18.92;;;4.40;99.90;;;;;;4980186;28;20938;-75
2021/12/05 02:53:38;;;;;;;43.00;20.02;;;4.40;99.90;;;;;;4983501;28;20038;-75
2021/12/05 02:56:05;;;;;;;40.35;18.08;;;4.40;99.90;;;;;;5002117;23;20069;-78
2021/12/05 02:58:50;;;;;;;35.80;18.80;;;4.40;99.90;;;;;;4969965;28;20096;-79
2021/12/05 03:01:30;;;;;;;40.13;18.05;;;4.40;99.90;;;;;;4976472;28;20038;-79
2021/12/05 03:03:57;;;;;;;38.00;18.02;;;4.40;99.90;;;;;;4967182;28;20031;-78
2021/12/05 03:06:27;;;;;;;34.58;16.60;;;4.40;99.90;;;;;;4988063;28;20029;-79
2021/12/05 03:09:05;;;;;;;30.27;15.85;;;4.40;99.90;;;;;;4977581;28;20041;-78
2021/12/05 03:11:31;;;;;;;35.63;16.30;;;4.40;99.90;;;;;;4987550;28;20053;-78
2021/12/05 03:13:57;;;;;;;36.17;16.17;;;4.40;99.90;;;;;;4987619;28;20038;-78
2021/12/05 03:16:25;;;;;;;36.35;17.30;;;4.40;99.90;;;;;;4989206;28;20369;-78
2021/12/05 03:18:51;;;;;;;36.28;15.52;;;4.30;99.90;;;;;;4970331;28;20073;-78
2021/12/05 03:21:18;;;;;;;40.58;16.02;;;4.30;99.90;;;;;;4977373;28;20036;-79
2021/12/05 03:23:46;;;;;;;36.70;16.02;;;4.30;99.90;;;;;;4983192;28;20128;-78
2021/12/05 03:26:14;;;;;;;49.00;17.17;;;4.30;99.90;;;;;;5006128;28;20037;-79
2021/12/05 03:28:44;;;;;;;29.38;13.88;;;4.30;99.90;;;;;;4969698;28;20049;-78
2021/12/05 03:31:10;;;;;;;41.75;16.08;;;4.30;99.90;;;;;;4969346;28;20042;-78
2021/12/05 03:33:37;;;;;;;33.25;14.35;;;4.30;99.90;;;;;;4988244;28;20053;-79
2021/12/05 03:36:08;;;;;;;33.05;15.48;;;4.30;99.90;;;;;;4990566;28;20038;-78
2021/12/05 03:38:34;;;;;;;33.83;14.27;;;4.20;99.90;;;;;;4980071;28;20038;-79
2021/12/05 03:41:00;;;;;;;36.60;13.73;;;4.20;99.90;;;;;;4994349;28;20041;-78
2021/12/05 03:43:26;;;;;;;31.00;14.18;;;4.20;99.90;;;;;;4991035;28;20092;-78
2021/12/05 03:45:54;;;;;;;39.10;14.23;;;4.20;99.90;;;;;;4988300;28;20420;-78
2021/12/05 03:48:24;;;;;;;33.85;13.57;;;4.10;99.90;;;;;;4991492;28;20066;-78
2021/12/05 03:50:50;;;;;;;25.48;12.32;;;4.10;99.90;;;;;;4989107;28;20034;-78
2021/12/05 03:53:17;;;;;;;29.02;12.50;;;4.00;99.90;;;;;;4989171;28;20066;-78
2021/12/05 03:55:46;;;;;;;27.15;12.07;;;4.00;99.90;;;;;;4988244;28;20045;-78
2021/12/05 03:58:12;;;;;;;24.13;11.82;;;4.00;99.90;;;;;;4987972;28;20045;-78
2021/12/05 04:00:41;;;;;;;29.20;12.18;;;4.00;99.90;;;;;;4973707;28;20038;-78
2021/12/05 04:03:10;;;;;;;34.08;11.50;;;4.00;99.90;;;;;;4989518;28;20037;-78
2021/12/05 04:05:37;;;;;;;23.88;10.93;;;3.90;99.90;;;;;;4993600;28;20038;-79
2021/12/05 04:08:07;;;;;;;28.98;11.30;;;3.90;99.90;;;;;;4976460;28;20054;-78
2021/12/05 04:10:35;;;;;;;22.83;10.23;;;3.90;99.90;;;;;;4968437;28;20489;-78
2021/12/05 04:13:01;;;;;;;29.48;11.98;;;3.90;99.90;;;;;;4993245;28;20487;-78
2021/12/05 04:15:26;;;;;;;25.85;10.98;;;3.90;99.90;;;;;;4994168;28;20058;-78
2021/12/05 04:17:53;;;;;;;23.80;9.88;;;3.80;99.90;;;;;;4983268;28;20049;-78
2021/12/05 04:20:19;;;;;;;23.27;9.98;;;3.80;99.90;;;;;;4979999;28;20033;-78
2021/12/05 04:22:46;;;;;;;26.67;10.18;;;3.80;99.90;;;;;;4978161;28;20034;-79
2021/12/05 04:25:14;;;;;;;26.65;10.32;;;3.80;99.90;;;;;;4992967;28;20025;-78
2021/12/05 04:27:42;;;;;;;22.48;9.68;;;3.80;99.90;;;;;;4975160;28;20145;-78
2021/12/05 04:30:10;;;;;;;22.88;9.95;;;3.80;99.90;;;;;;4997122;28;20173;-78
2021/12/05 04:32:36;;;;;;;31.20;9.23;;;3.80;99.90;;;;;;4990631;28;20042;-78
2021/12/05 04:35:03;;;;;;;24.75;9.70;;;3.70;99.90;;;;;;4993821;28;20389;-78
2021/12/05 04:37:29;;;;;;;25.00;9.77;;;3.80;99.90;;;;;;5000101;28;20042;-78
2021/12/05 04:39:54;;;;;;;22.70;8.73;;;3.70;99.90;;;;;;4980609;28;20042;-78
2021/12/05 04:42:20;;;;;;;23.80;9.43;;;3.70;99.90;;;;;;4983434;28;20038;-78
2021/12/05 04:44:46;;;;;;;24.05;9.00;;;3.70;99.90;;;;;;4973608;28;20073;-79
2021/12/05 04:47:12;;;;;;;22.38;9.38;;;3.70;99.90;;;;;;4992307;28;20037;-78
2021/12/05 04:49:40;;;;;;;25.42;9.00;;;3.60;99.90;;;;;;4977926;28;20124;-78
2021/12/05 04:52:07;;;;;;;28.48;8.63;;;3.60;99.90;;;;;;4979324;28;20514;-78
2021/12/05 04:54:33;;;;;;;27.58;8.95;;;3.60;99.90;;;;;;4994862;28;20039;-78
2021/12/05 04:56:59;;;;;;;25.73;8.63;;;3.60;99.90;;;;;;4996735;28;20060;-78
2021/12/05 04:59:27;;;;;;;22.95;9.55;;;3.60;99.90;;;;;;4993578;28;20052;-78
2021/12/05 05:01:57;;;;;;;19.40;8.38;;;3.50;99.90;;;;;;4995418;28;20037;-78
2021/12/05 05:04:29;;;;;;;19.05;8.50;;;3.50;99.90;;;;;;4993239;28;20510;-78
2021/12/05 05:07:02;;;;;;;19.48;9.27;;;3.50;99.90;;;;;;5012741;28;20045;-78
2021/12/05 05:09:28;;;;;;;22.48;8.70;;;3.50;99.90;;;;;;4980496;28;20062;-78
2021/12/05 05:11:54;;;;;;;23.90;9.45;;;3.50;99.90;;;;;;4994286;28;20396;-78
2021/12/05 05:14:19;;;;;;;21.27;8.70;;;3.40;99.90;;;;;;4996742;28;20476;-78
2021/12/05 05:16:47;;;;;;;25.77;8.82;;;3.30;99.90;;;;;;4978671;28;20049;-78
2021/12/05 05:19:16;;;;;;;26.27;8.25;;;3.30;99.90;;;;;;4990690;28;20519;-78
2021/12/05 05:21:58;;;;;;;21.48;9.00;;;3.30;99.90;;;;;;4975407;28;20500;-78
2021/12/05 05:41:43;;;;;;;24.52;8.85;;;3.00;99.90;;;;;;4991004;28;20972;-78
2021/12/05 05:46:06;;;;;;;29.77;8.07;;;2.90;99.90;;;;;;4991622;28;20034;-78
2021/12/05 05:50:59;;;;;;;21.40;8.40;;;2.80;99.90;;;;;;4997817;28;20088;-78
2021/12/05 05:53:25;;;;;;;24.98;8.98;;;2.80;99.90;;;;;;4996907;28;20050;-78
2021/12/05 05:55:53;;;;;;;23.45;8.00;;;2.80;99.90;;;;;;4989470;28;20424;-78
2021/12/05 05:58:22;;;;;;;26.10;8.65;;;2.90;99.90;;;;;;4996758;28;20082;-78
2021/12/05 06:01:02;;;;;;;24.98;8.43;;;2.80;99.90;;;;;;4982774;28;20511;-79
2021/12/05 06:03:28;;;;;;;22.52;7.93;;;2.90;99.90;;;;;;4962352;28;20423;-78
2021/12/05 06:05:57;;;;;;;27.08;9.40;;;2.90;99.90;;;;;;4977935;28;20099;-78
2021/12/05 06:08:26;;;;;;;25.90;9.15;;;2.90;99.90;;;;;;4990077;28;20187;-78
2021/12/05 06:10:55;;;;;;;31.70;9.50;;;2.90;99.90;;;;;;4978927;28;20462;-78
2021/12/05 06:13:21;;;;;;;22.58;9.50;;;2.90;99.90;;;;;;5012314;28;20502;-78
2021/12/05 06:15:48;;;;;;;26.50;8.95;;;2.90;99.90;;;;;;4979624;28;20141;-78
2021/12/05 06:18:14;;;;;;;22.15;9.32;;;2.90;99.90;;;;;;4967089;28;20044;-78
2021/12/05 06:20:40;;;;;;;33.10;10.20;;;3.00;99.90;;;;;;4978656;28;20030;-78
2021/12/05 06:23:06;;;;;;;35.78;9.88;;;3.00;99.90;;;;;;4973367;28;20121;-78
2021/12/05 06:25:35;;;;;;;31.40;10.20;;;3.10;99.90;;;;;;4990217;28;20053;-78
2021/12/05 06:28:06;;;;;;;31.85;10.75;;;3.00;99.90;;;;;;4971873;28;20488;-77
2021/12/05 06:48:49;;;;;;;29.67;11.88;;;3.30;99.90;;;;;;4992962;28;20046;-78
2021/12/05 06:51:18;;;;;;;31.02;12.77;;;3.40;99.90;;;;;;4984417;28;20172;-78
2021/12/05 06:53:44;;;;;;;31.25;11.80;;;3.40;99.90;;;;;;4989015;28;20038;-77
2021/12/05 06:56:10;;;;;;;38.30;12.80;;;3.40;99.90;;;;;;4990137;28;20080;-78
2021/12/05 06:58:37;;;;;;;33.03;12.55;;;3.40;99.90;;;;;;4992219;28;20503;-77
2021/12/05 07:01:07;;;;;;;29.00;12.27;;;3.50;99.90;;;;;;4989133;28;20040;-78
2021/12/05 07:03:33;;;;;;;36.40;13.23;;;3.50;99.90;;;;;;4990813;28;20034;-78
2021/12/05 07:06:03;;;;;;;25.50;12.75;;;3.50;99.90;;;;;;4973307;28;20034;-78
2021/12/05 07:08:33;;;;;;;34.58;12.88;;;3.50;99.90;;;;;;4995035;28;20080;-78
2021/12/05 07:16:52;;;;;;;30.30;13.18;;;3.60;99.90;;;;;;4995597;28;20124;-78
2021/12/05 07:19:35;;;;;;;32.60;13.15;;;3.60;99.90;;;;;;4973162;28;20042;-78
2021/12/05 07:22:13;;;;;;;27.38;12.50;;;3.60;99.90;;;;;;4976942;28;20083;-77
2021/12/05 07:24:45;;;;;;;27.70;12.07;;;3.60;99.90;;;;;;4992391;28;20076;-78
2021/12/05 07:41:48;;;;;;;29.15;12.10;;;3.70;99.90;;;;;;4991236;28;20038;-77
2021/12/05 07:44:14;;;;;;;29.23;12.32;;;3.70;99.90;;;;;;4994293;28;20033;-77
2021/12/05 07:46:39;;;;;;;28.20;12.20;;;3.70;99.90;;;;;;4972581;28;20511;-77
2021/12/05 07:49:10;;;;;;;27.58;11.77;;;3.70;99.90;;;;;;4955904;28;20180;-78
2021/12/05 07:51:40;;;;;;;30.30;12.98;;;3.70;99.90;;;;;;4989141;28;20069;-77
2021/12/05 07:54:16;;;;;;;27.73;13.55;;;3.80;99.90;;;;;;4994181;28;20042;-77
2021/12/05 07:56:48;;;;;;;21.73;12.23;;;3.80;99.90;;;;;;4987062;28;20512;-77
2021/12/05 08:15:40;;;;;;;22.95;12.30;;;3.90;99.90;;;;;;4990307;28;20092;-78
2021/12/05 08:18:06;;;;;;;25.38;13.15;;;3.90;99.90;;;;;;4992072;28;20088;-77
2021/12/05 08:20:35;;;;;;;25.80;12.55;;;3.90;99.90;;;;;;4995402;28;20488;-77
2021/12/05 08:23:03;;;;;;;22.67;11.70;;;3.90;99.90;;;;;;4975557;28;20034;-77
2021/12/05 08:25:32;;;;;;;21.40;13.35;;;3.90;99.90;;;;;;4985642;28;20045;-77
2021/12/05 08:28:14;;;;;;;22.58;12.38;;;4.00;99.90;;;;;;4992380;28;20043;-77
2021/12/05 08:30:41;;;;;;;27.17;12.10;;;4.00;99.90;;;;;;4992069;28;20129;-78
2021/12/05 09:26:47;;;;;;;20.92;10.48;;;4.30;99.90;;;;;;4989519;28;20124;-77
2021/12/05 09:40:25;;;;;;;17.92;9.27;;;4.40;99.90;;;;;;4987586;28;20063;-78
2021/12/05 10:07:38;;;;;;;20.20;8.35;;;4.50;99.90;;;;;;4987190;28;20049;-78
2021/12/05 10:26:40;;;;;;;13.05;7.35;;;4.70;99.90;;;;;;4991416;28;20069;-79
2021/12/05 10:37:52;;;;;;;15.50;7.60;;;4.80;99.90;;;;;;4988378;28;20070;-79
2021/12/05 10:40:47;;;;;;;16.38;7.43;;;4.90;99.90;;;;;;4991834;28;20026;-78
2021/12/05 10:43:20;;;;;;;14.55;6.90;;;4.90;99.90;;;;;;4980550;28;20042;-78
2021/12/05 10:45:52;;;;;;;17.73;7.68;;;4.90;99.90;;;;;;4988389;28;20038;-79
2021/12/05 10:48:34;;;;;;;20.25;6.78;;;5.00;99.90;;;;;;4989378;28;20033;-79
2021/12/05 10:51:06;;;;;;;13.60;6.53;;;5.10;99.90;;;;;;4974895;28;20087;-79
2021/12/05 10:53:47;;;;;;;18.02;6.80;;;5.10;99.90;;;;;;4986966;28;20046;-78
2021/12/05 10:56:21;;;;;;;15.20;7.38;;;5.20;99.90;;;;;;4987779;28;20060;-79
2021/12/05 10:58:54;;;;;;;12.52;6.72;;;5.20;99.90;;;;;;4986488;28;20046;-78
2021/12/05 11:01:25;;;;;;;9.38;5.70;;;5.30;99.90;;;;;;4988423;28;20046;-78
2021/12/05 11:04:12;;;;;;;16.77;6.60;;;5.30;99.90;;;;;;4984858;28;20046;-78
2021/12/05 11:06:40;;;;;;;10.85;6.05;;;5.40;99.90;;;;;;4985751;28;20080;-78
2021/12/05 11:09:14;;;;;;;11.70;6.13;;;5.50;99.90;;;;;;4989178;28;20037;-78
2021/12/05 11:11:43;;;;;;;9.35;5.35;;;5.50;99.90;;;;;;4990027;28;20033;-77
2021/12/05 11:14:17;;;;;;;11.88;5.80;;;5.50;99.90;;;;;;4958337;28;20038;-77
2021/12/05 11:16:48;;;;;;;12.57;6.18;;;5.60;99.90;;;;;;4985939;28;20099;-78
2021/12/05 11:19:18;;;;;;;8.23;5.20;;;5.60;99.90;;;;;;4992251;28;20050;-77
2021/12/05 11:21:51;;;;;;;8.82;4.93;;;5.60;99.90;;;;;;4989538;28;20041;-77
2021/12/05 11:24:21;;;;;;;;;;;5.70;99.90;;;;;;4958098;28;20431;-77
2021/12/05 11:27:20;;;;;;;13.27;5.88;;;5.70;99.90;;;;;;4976189;28;19921;-82
2021/12/05 11:29:48;;;;;;;11.88;5.93;;;5.70;99.90;;;;;;4961538;28;20045;-82
2021/12/05 11:32:24;;;;;;;10.75;5.55;;;5.70;99.90;;;;;;4974331;28;20050;-83
2021/12/05 11:34:52;;;;;;;11.02;5.90;;;5.70;99.90;;;;;;4976865;28;20038;-83
2021/12/05 11:37:17;;;;;;;13.43;5.60;;;5.70;99.90;;;;;;4974293;28;20123;-82
2021/12/05 11:40:03;;;;;;;9.75;5.20;;;5.70;99.90;;;;;;4974050;28;20101;-82
2021/12/05 11:42:29;;;;;;;12.43;5.28;;;5.70;99.90;;;;;;4975976;28;20038;-81
2021/12/05 11:47:35;;;;;;;9.75;5.45;;;5.70;99.90;;;;;;5048954;22;20072;-78
2021/12/05 11:50:08;;;;;;;7.65;5.30;;;5.70;99.90;;;;;;4988420;28;20045;-77
2021/12/05 11:52:39;;;;;;;12.10;5.10;;;5.70;99.90;;;;;;4984707;28;20125;-77
2021/12/05 11:55:06;;;;;;;9.18;4.68;;;5.70;99.90;;;;;;4988146;28;20046;-77
2021/12/05 11:57:36;;;;;;;11.88;5.60;;;5.70;99.90;;;;;;4993055;28;20124;-77
2021/12/05 12:00:15;;;;;;;14.43;5.13;;;5.60;99.90;;;;;;4968107;28;20088;-77
2021/12/05 12:02:42;;;;;;;10.98;5.30;;;5.70;99.90;;;;;;4989656;28;20038;-77
2021/12/05 12:05:26;;;;;;;9.43;5.70;;;5.70;99.90;;;;;;4986031;28;20080;-77
2021/12/05 12:08:00;;;;;;;8.48;5.25;;;5.60;99.90;;;;;;4972698;28;20042;-77
2021/12/05 12:10:34;;;;;;;10.13;5.03;;;5.70;99.90;;;;;;4970575;28;20042;-77
2021/12/05 12:13:09;;;;;;;10.98;5.28;;;5.70;99.90;;;;;;4987220;28;20033;-77
2021/12/05 12:15:36;;;;;;;13.32;5.45;;;5.60;99.90;;;;;;4989076;28;20031;-77
2021/12/05 12:18:11;;;;;;;12.57;5.10;;;5.70;99.90;;;;;;4989424;28;20046;-77
2021/12/05 12:20:39;;;;;;;11.18;5.18;;;5.60;99.90;;;;;;4975619;28;20034;-77
2021/12/05 12:23:05;;;;;;;9.10;5.47;;;5.60;99.90;;;;;;4994134;28;20030;-77
2021/12/05 12:25:35;;;;;;;9.65;5.20;;;5.60;99.90;;;;;;4990742;28;20037;-77
2021/12/05 12:28:02;;;;;;;13.13;5.45;;;5.60;99.90;;;;;;4992163;28;20046;-77
2021/12/05 12:30:32;;;;;;;10.88;5.15;;;5.60;99.90;;;;;;4996739;28;20073;-77
2021/12/05 12:33:21;;;;;;;10.40;5.00;;;5.60;99.90;;;;;;4978483;28;20041;-77
2021/12/05 12:35:48;;;;;;;10.63;5.00;;;5.60;99.90;;;;;;4980241;28;20132;-77
2021/12/05 12:38:20;;;;;;;7.32;4.95;;;5.60;99.90;;;;;;4980715;28;20084;-77
2021/12/05 12:40:55;;;;;;;7.15;4.50;;;5.60;99.90;;;;;;4996247;28;20029;-77
2021/12/05 12:43:52;;;;;;;9.13;4.88;;;5.60;99.90;;;;;;4975923;28;20104;-77
2021/12/05 12:46:29;;;;;;;8.93;5.00;;;5.60;99.90;;;;;;4992805;28;20047;-77
2021/12/05 12:49:18;;;;;;;9.55;5.05;;;5.60;99.90;;;;;;4992319;28;20037;-77
2021/12/05 12:51:45;;;;;;;9.88;4.82;;;5.60;99.90;;;;;;4990591;28;20146;-77
2021/12/05 12:54:15;;;;;;;7.55;4.47;;;5.60;99.90;;;;;;4978217;28;20490;-77
2021/12/05 12:56:58;;;;;;;8.32;4.60;;;5.60;99.90;;;;;;4996569;28;20405;-77
2021/12/05 12:59:30;;;;;;;8.40;4.30;;;5.60;99.90;;;;;;4995337;28;20134;-77
2021/12/05 13:10:25;;;;;;;8.65;4.38;;;5.50;99.90;;;;;;4993110;28;20081;-77
2021/12/05 13:13:05;;;;;;;7.10;4.40;;;5.50;99.90;;;;;;4992034;28;20037;-77
2021/12/05 13:15:36;;;;;;;6.30;4.30;;;5.50;99.90;;;;;;4964311;28;20038;-77
2021/12/05 13:18:08;;;;;;;7.82;4.43;;;5.50;99.90;;;;;;4996629;28;20046;-77
2021/12/05 13:20:42;;;;;;;6.47;4.32;;;5.50;99.90;;;;;;4979921;28;20464;-77
2021/12/05 13:23:13;;;;;;;7.68;4.47;;;5.50;99.90;;;;;;4989519;28;20069;-78
2021/12/05 13:26:06;;;;;;;9.23;4.28;;;5.60;99.90;;;;;;4996679;28;20038;-77
2021/12/05 13:28:33;;;;;;;7.03;4.30;;;5.60;99.90;;;;;;4988651;28;20448;-77
2021/12/05 13:31:00;;;;;;;7.22;4.20;;;5.60;99.90;;;;;;4980577;28;20072;-77
2021/12/05 13:33:31;;;;;;;8.02;4.13;;;5.70;99.90;;;;;;4974537;28;20056;-77
2021/12/05 13:35:58;;;;;;;6.93;4.70;;;5.60;99.90;;;;;;5011767;28;20053;-77
2021/12/05 13:38:39;;;;;;;7.57;4.50;;;5.60;99.90;;;;;;4994989;28;20084;-77
2021/12/05 13:41:17;;;;;;;7.38;4.20;;;5.70;99.90;;;;;;4991386;28;20084;-77
2021/12/05 13:43:55;;;;;;;7.07;4.28;;;5.70;99.90;;;;;;4970175;28;20034;-77
2021/12/05 13:46:38;;;;;;;6.55;4.43;;;5.70;99.90;;;;;;4995287;28;20045;-77
2021/12/05 13:49:31;;;;;;;7.53;4.35;;;5.70;99.90;;;;;;4989463;28;20053;-77
2021/12/05 13:52:43;;;;;;;6.57;4.00;;;5.70;99.90;;;;;;4986997;28;20038;-77
2021/12/05 13:55:41;;;;;;;5.95;3.70;;;5.70;99.90;;;;;;4967038;28;20588;-77
2021/12/05 13:58:32;;;;;;;6.43;4.10;;;5.70;99.90;;;;;;4959464;28;20046;-77
2021/12/05 14:01:14;;;;;;;5.13;4.20;;;5.80;99.90;;;;;;4972071;28;20396;-77
2021/12/05 14:04:18;;;;;;;5.43;3.80;;;5.80;99.90;;;;;;4988056;28;20073;-77
2021/12/05 14:07:01;;;;;;;6.72;3.85;;;6.00;99.90;;;;;;4985855;28;20117;-77
2021/12/05 14:09:47;;;;;;;;;;;6.10;99.90;;;;;;4976622;28;20129;-77
2021/12/05 14:12:30;;;;;;;6.28;3.88;;;6.10;99.90;;;;;;4986125;28;19917;-77
2021/12/05 14:15:00;;;;;;;5.78;3.53;;;6.10;99.90;;;;;;4989561;28;20046;-77
2021/12/05 14:17:29;;;;;;;8.50;3.80;;;6.20;99.90;;;;;;4976928;28;20065;-77
2021/12/05 14:19:59;;;;;;;12.57;6.32;;;6.30;99.90;;;;;;4989423;28;20129;-77
2021/12/05 14:22:29;;;;;;;4.97;3.85;;;6.30;99.90;;;;;;4986844;28;20084;-77
2021/12/05 14:24:58;;;;;;;3.95;3.42;;;6.40;99.90;;;;;;4987060;28;20088;-76
2021/12/05 14:27:35;;;;;;;5.85;3.58;;;6.50;99.90;;;;;;4987478;28;20073;-77
2021/12/05 14:30:06;;;;;;;4.32;3.40;;;6.50;99.90;;;;;;4989887;28;20038;-77
2021/12/05 14:32:35;;;;;;;6.20;3.65;;;6.50;99.90;;;;;;4970737;28;20053;-77
2021/12/05 14:35:10;;;;;;;7.72;3.58;;;6.50;99.90;;;;;;4989249;28;20041;-77
2021/12/05 14:37:41;;;;;;;4.68;3.50;;;6.50;99.90;;;;;;4977759;28;20092;-77
2021/12/05 14:40:18;;;;;;;5.57;3.70;;;6.40;99.90;;;;;;4971789;28;20042;-77
2021/12/05 14:42:47;;;;;;;6.95;3.90;;;6.40;99.90;;;;;;4988742;28;20048;-77
2021/12/05 14:45:21;;;;;;;6.70;3.65;;;6.40;99.90;;;;;;4988656;28;20045;-77
2021/12/05 14:47:48;;;;;;;6.32;3.95;;;6.40;99.90;;;;;;5006770;28;20034;-77
2021/12/05 14:50:23;;;;;;;5.15;4.05;;;6.30;99.90;;;;;;4970071;28;20044;-77
2021/12/05 14:52:53;;;;;;;5.82;4.20;;;6.30;99.90;;;;;;4989412;28;20037;-77
2021/12/05 14:55:20;;;;;;;4.72;4.20;;;6.20;99.90;;;;;;4990240;28;20045;-77
2021/12/05 14:57:54;;;;;;;5.25;4.40;;;6.20;99.90;;;;;;4989521;28;20069;-77
2021/12/05 15:00:30;;;;;;;7.75;5.10;;;6.10;99.90;;;;;;4987583;28;20128;-77
2021/12/05 15:03:24;;;;;;;6.78;5.05;;;6.00;99.90;;;;;;4991409;28;20041;-77
2021/12/05 15:05:56;;;;;;;7.38;5.13;;;5.90;99.90;;;;;;5004492;28;20057;-77
2021/12/05 15:08:25;;;;;;;8.05;5.35;;;5.90;99.90;;;;;;4992626;28;20065;-77
2021/12/05 15:10:56;;;;;;;8.80;6.18;;;5.80;99.90;;;;;;4987248;28;20042;-77
2021/12/05 15:13:21;;;;;;;7.68;5.43;;;5.80;99.90;;;;;;4990174;28;20049;-77
2021/12/05 15:15:47;;;;;;;11.07;5.97;;;5.70;99.90;;;;;;4990687;28;20043;-78
2021/12/05 15:18:16;;;;;;;8.18;6.55;;;5.60;99.90;;;;;;4993183;28;20048;-77
2021/12/05 15:20:44;;;;;;;9.38;6.53;;;5.60;99.90;;;;;;4976633;28;20052;-77
2021/12/05 15:23:10;;;;;;;10.35;6.25;;;5.60;99.90;;;;;;5003370;28;20046;-77
2021/12/05 15:25:38;;;;;;;9.90;6.25;;;5.50;99.90;;;;;;4973604;28;20034;-77
2021/12/05 15:28:05;;;;;;;9.93;6.30;;;5.50;99.90;;;;;;4991138;28;20029;-78
2021/12/05 15:30:37;;;;;;;9.45;6.55;;;5.40;99.90;;;;;;4985104;28;20397;-77
2021/12/05 15:33:20;;;;;;;8.85;6.60;;;5.40;99.90;;;;;;4985523;28;20065;-77
2021/12/05 15:35:47;;;;;;;9.43;6.35;;;5.30;99.90;;;;;;4990749;28;20058;-77
2021/12/05 15:38:21;;;;;;;10.95;7.28;;;5.40;99.90;;;;;;4988284;28;20054;-77
2021/12/05 15:40:48;;;;;;;10.20;6.28;;;5.30;99.90;;;;;;4990863;28;20036;-77
2021/12/05 15:43:17;;;;;;;9.70;6.85;;;5.30;99.90;;;;;;4989104;28;20057;-77
2021/12/05 15:45:46;;;;;;;9.98;6.78;;;5.30;99.90;;;;;;4993216;28;20459;-77
2021/12/05 15:48:22;;;;;;;7.90;6.55;;;5.30;99.90;;;;;;4989942;28;20040;-77
2021/12/05 15:50:50;;;;;;;10.02;6.50;;;5.30;99.90;;;;;;4970478;28;20128;-77
2021/12/05 15:53:18;;;;;;;9.68;6.55;;;5.20;99.90;;;;;;4986846;28;20069;-77
2021/12/05 15:55:58;;;;;;;10.82;6.65;;;5.20;99.90;;;;;;4974613;28;20042;-77
2021/12/05 15:58:31;;;;;;;15.15;6.90;;;5.20;99.90;;;;;;4988318;28;20041;-77
2021/12/05 16:01:15;;;;;;;8.32;6.47;;;5.20;99.90;;;;;;4990186;28;20080;-77
2021/12/05 16:03:58;;;;;;;8.38;6.65;;;5.20;99.90;;;;;;4990315;28;20407;-76
2021/12/05 16:06:50;;;;;;;10.00;7.03;;;5.20;99.90;;;;;;5003786;28;20050;-77
2021/12/05 16:09:23;;;;;;;7.05;6.18;;;5.20;99.90;;;;;;4982934;28;20116;-77
2021/12/05 16:11:50;;;;;;;11.65;7.10;;;5.10;99.90;;;;;;4988944;28;20045;-77
2021/12/05 16:14:32;;;;;;;7.70;6.50;;;5.10;99.90;;;;;;4990914;28;20457;-77
2021/12/05 16:16:58;;;;;;;10.95;6.97;;;5.10;99.90;;;;;;4987200;28;20045;-77
2021/12/05 16:19:24;;;;;;;7.88;6.65;;;5.10;99.90;;;;;;4993976;28;20042;-77
2021/12/05 16:21:52;;;;;;;8.05;7.00;;;5.10;99.90;;;;;;4991516;28;20073;-77
2021/12/05 16:24:20;;;;;;;10.05;7.70;;;5.10;99.90;;;;;;4990624;28;20042;-77
2021/12/05 16:26:48;;;;;;;9.25;7.07;;;5.10;99.90;;;;;;4984032;28;20034;-76
2021/12/05 16:29:22;;;;;;;9.52;6.85;;;5.10;99.90;;;;;;5009041;28;20031;-77
2021/12/05 16:31:57;;;;;;;9.88;6.72;;;5.10;99.90;;;;;;4984389;28;20081;-77
2021/12/05 16:34:26;;;;;;;8.52;7.40;;;5.10;99.90;;;;;;5005675;28;20034;-77
2021/12/05 16:36:59;;;;;;;9.25;7.60;;;5.10;99.90;;;;;;4977600;28;20039;-77
2021/12/05 16:39:34;;;;;;;11.40;6.70;;;5.10;99.90;;;;;;4988965;28;20038;-77
2021/12/05 16:42:19;;;;;;;8.73;6.75;;;5.10;99.90;;;;;;4987796;28;20231;-77
2021/12/05 16:44:53;;;;;;;8.88;6.93;;;5.10;99.90;;;;;;4986029;28;20034;-75
2021/12/05 16:47:22;;;;;;;8.43;6.72;;;5.10;99.90;;;;;;4988326;28;20034;-77
2021/12/05 16:49:51;;;;;;;8.68;7.20;;;5.00;99.90;;;;;;4993541;28;20121;-77
2021/12/05 16:52:28;;;;;;;8.50;6.75;;;5.00;99.90;;;;;;4967081;28;20130;-77
2021/12/05 16:55:01;;;;;;;9.60;6.93;;;5.00;99.90;;;;;;4988586;28;20046;-77
2021/12/05 16:57:34;;;;;;;9.68;7.25;;;5.00;99.90;;;;;;4986476;28;20042;-74
2021/12/05 17:00:09;;;;;;;9.07;6.97;;;5.00;99.90;;;;;;4988424;28;20092;-77
2021/12/05 17:02:44;;;;;;;9.82;7.95;;;5.00;99.90;;;;;;4987451;28;20069;-77
2021/12/05 17:05:23;;;;;;;9.15;7.78;;;5.00;99.90;;;;;;4992719;28;20038;-77
2021/12/05 17:07:54;;;;;;;11.25;8.75;;;4.90;99.90;;;;;;4988690;28;20038;-76
2021/12/05 17:10:20;;;;;;;10.25;8.10;;;4.90;99.90;;;;;;4979941;28;20072;-77
2021/12/05 17:12:47;;;;;;;13.13;9.02;;;4.90;99.90;;;;;;4996808;28;20061;-77
2021/12/05 17:15:15;;;;;;;13.90;9.02;;;4.90;99.90;;;;;;4959205;28;20077;-76
2021/12/05 17:17:42;;;;;;;12.32;9.00;;;4.90;99.90;;;;;;4988676;28;20038;-76
2021/12/05 17:20:19;;;;;;;12.80;9.60;;;4.90;99.90;;;;;;4990991;28;20038;-77
2021/12/05 17:22:57;;;;;;;13.20;9.35;;;4.90;99.90;;;;;;4975195;28;20035;-77
2021/12/05 17:25:34;;;;;;;12.95;9.30;;;4.90;99.90;;;;;;4993229;28;20080;-77
2021/12/05 17:28:02;;;;;;;13.75;8.85;;;4.90;99.90;;;;;;4996059;28;20046;-77
2021/12/05 17:30:28;;;;;;;15.40;10.23;;;4.90;99.90;;;;;;4992242;28;20100;-77
2021/12/05 17:32:54;;;;;;;9.98;8.85;;;4.90;99.90;;;;;;4979529;28;20041;-77
2021/12/05 17:35:21;;;;;;;14.77;9.40;;;4.90;99.90;;;;;;4993536;28;20042;-77
2021/12/05 17:37:47;;;;;;;17.42;9.75;;;4.90;99.90;;;;;;4974624;28;20060;-77
2021/12/05 17:40:14;;;;;;;10.55;9.38;;;4.90;99.90;;;;;;4986856;28;20065;-77
2021/12/05 17:42:41;;;;;;;14.93;10.52;;;4.90;99.90;;;;;;4989541;28;20047;-77
2021/12/05 17:45:10;;;;;;;16.77;10.00;;;4.90;99.90;;;;;;4988153;28;20508;-77
2021/12/05 17:47:36;;;;;;;16.50;12.10;;;4.90;99.90;;;;;;4989663;28;20080;-77
2021/12/05 17:50:06;;;;;;;16.73;10.88;;;4.90;99.90;;;;;;4988105;28;20084;-77
2021/12/05 17:52:32;;;;;;;17.90;12.10;;;5.00;99.90;;;;;;4972579;28;20033;-76
2021/12/05 17:55:05;;;;;;;17.52;11.63;;;5.00;99.90;;;;;;4991084;28;20056;-77
2021/12/05 17:57:38;;;;;;;18.13;12.93;;;5.00;99.90;;;;;;4989526;28;20042;-77
2021/12/05 18:00:34;;;;;;;26.15;17.58;;;5.00;99.90;;;;;;4987018;28;20041;-76
2021/12/05 18:03:04;;;;;;;24.70;17.13;;;5.00;99.90;;;;;;4987790;28;20083;-77
2021/12/05 18:05:35;;;;;;;38.35;23.30;;;5.00;99.90;;;;;;4982009;28;20092;-77
2021/12/05 18:08:04;;;;;;;22.30;13.93;;;5.00;99.90;;;;;;4988332;28;20080;-77
2021/12/05 18:10:33;;;;;;;22.27;13.77;;;5.00;99.90;;;;;;4990001;28;20042;-77
2021/12/05 18:12:59;;;;;;;25.80;14.45;;;5.00;99.90;;;;;;4990660;28;20034;-77
2021/12/05 18:15:29;;;;;;;29.75;17.48;;;5.10;99.90;;;;;;4988665;28;20048;-73
2021/12/05 18:17:58;;;;;;;29.35;16.45;;;5.10;99.90;;;;;;4987345;28;20038;-74